sensor_id;sensor_type;location;lat;lon;timestamp;temperature;humidity
52127;DHT22;38120;53.176;6.614;2023-03-01T00:00:14;-0.80;99.90
52127;DHT22;38120;53.176;6.614;2023-03-01T00:02:40;-0.80;99.90
52127;DHT22;38120;53.176;6.614;2023-03-01T00:05:05;-0.60;99.90
52127;DHT22;38120;53.176;6.614;2023-03-01T00:07:32;-0.80;99.90
52127;DHT22;38120;53.176;6.614;2023-03-01T00:10:04;-0.80;99.90
52127;DHT22;38120;53.176;6.614;2023-03-01T00:12:30;-0.80;99.90
52127;DHT22;38120;53.176;6.614;2023-03-01T00:14:56;-0.80;99.90
52127;DHT22;38120;53.176;6.614;2023-03-01T00:17:22;-0.80;99.90
52127;DHT22;38120;53.176;6.614;2023-03-01T00:19:47;-0.80;99.90
52127;DHT22;38120;53.176;6.614;2023-03-01T00:22:13;-0.80;99.90
52127;DHT22;38120;53.176;6.614;2023-03-01T00:24:38;-0.80;99.90
52127;DHT22;38120;53.176;6.614;2023-03-01T00:27:04;-0.90;99.90
52127;DHT22;38120;53.176;6.614;2023-03-01T00:29:30;-0.90;99.90
52127;DHT22;38120;53.176;6.614;2023-03-01T00:31:55;-1.00;99.90
52127;DHT22;38120;53.176;6.614;2023-03-01T00:34:21;-1.00;99.90
52127;DHT22;38120;53.176;6.614;2023-03-01T00:36:46;-1.00;99.90
52127;DHT22;38120;53.176;6.614;2023-03-01T00:39:15;-1.00;99.90
52127;DHT22;38120;53.176;6.614;2023-03-01T00:41:41;-1.00;99.90
52127;DHT22;38120;53.176;6.614;2023-03-01T00:44:07;-1.00;99.90
52127;DHT22;38120;53.176;6.614;2023-03-01T00:46:32;-1.00;99.90
52127;DHT22;38120;53.176;6.614;2023-03-01T00:48:59;-1.10;99.90
52127;DHT22;38120;53.176;6.614;2023-03-01T00:51:27;-1.10;99.90
52127;DHT22;38120;53.176;6.614;2023-03-01T00:53:54;-1.10;99.90
52127;DHT22;38120;53.176;6.614;2023-03-01T00:56:20;-1.10;99.90
52127;DHT22;38120;53.176;6.614;2023-03-01T00:58:46;-1.10;99.90
52127;DHT22;38120;53.176;6.614;2023-03-01T01:01:13;-1.20;99.90
52127;DHT22;38120;53.176;6.614;2023-03-01T01:06:44;-1.20;99.90
52127;DHT22;38120;53.176;6.614;2023-03-01T01:09:03;-1.20;99.90
52127;DHT22;38120;53.176;6.614;2023-03-01T01:11:29;-0.70;99.90
52127;DHT22;38120;53.176;6.614;2023-03-01T01:13:54;-1.20;99.90
52127;DHT22;38120;53.176;6.614;2023-03-01T01:16:21;-1.30;99.90
52127;DHT22;38120;53.176;6.614;2023-03-01T01:18:47;-1.30;99.90
52127;DHT22;38120;53.176;6.614;2023-03-01T01:21:14;-1.30;99.90
52127;DHT22;38120;53.176;6.614;2023-03-01T01:23:40;-1.30;99.90
52127;DHT22;38120;53.176;6.614;2023-03-01T01:26:07;-1.30;99.90
52127;DHT22;38120;53.176;6.614;2023-03-01T01:28:33;-1.40;99.90
52127;DHT22;38120;53.176;6.614;2023-03-01T01:30:58;-1.40;99.90
52127;DHT22;38120;53.176;6.614;2023-03-01T01:33:24;-1.40;99.90
52127;DHT22;38120;53.176;6.614;2023-03-01T01:35:50;-1.50;99.90
52127;DHT22;38120;53.176;6.614;2023-03-01T01:38:15;-1.70;99.90
52127;DHT22;38120;53.176;6.614;2023-03-01T01:40:45;-1.80;99.90
52127;DHT22;38120;53.176;6.614;2023-03-01T01:43:14;-1.60;99.90
52127;DHT22;38120;53.176;6.614;2023-03-01T01:45:43;-1.60;99.90
52127;DHT22;38120;53.176;6.614;2023-03-01T01:48:13;-1.70;99.90
52127;DHT22;38120;53.176;6.614;2023-03-01T01:50:39;-1.80;99.90
52127;DHT22;38120;53.176;6.614;2023-03-01T01:53:07;-1.70;99.90
52127;DHT22;38120;53.176;6.614;2023-03-01T01:55:33;-1.60;99.90
52127;DHT22;38120;53.176;6.614;2023-03-01T01:58:02;-1.60;99.90
52127;DHT22;38120;53.176;6.614;2023-03-01T02:00:29;-1.70;99.90
52127;DHT22;38120;53.176;6.614;2023-03-01T02:02:56;-0.80;99.90
52127;DHT22;38120;53.176;6.614;2023-03-01T02:05:24;-1.70;99.90
52127;DHT22;38120;53.176;6.614;2023-03-01T02:07:51;-1.60;99.90
52127;DHT22;38120;53.176;6.614;2023-03-01T02:10:17;-1.60;99.90
52127;DHT22;38120;53.176;6.614;2023-03-01T02:12:42;-1.60;99.90
52127;DHT22;38120;53.176;6.614;2023-03-01T02:15:08;-1.60;99.90
52127;DHT22;38120;53.176;6.614;2023-03-01T02:17:34;-1.70;99.90
52127;DHT22;38120;53.176;6.614;2023-03-01T02:23:01;-1.70;99.90
52127;DHT22;38120;53.176;6.614;2023-03-01T02:30:47;-1.60;99.90
52127;DHT22;38120;53.176;6.614;2023-03-01T02:33:33;-1.60;99.90
52127;DHT22;38120;53.176;6.614;2023-03-01T02:36:02;-1.10;99.90
52127;DHT22;38120;53.176;6.614;2023-03-01T02:38:28;-1.70;99.90
52127;DHT22;38120;53.176;6.614;2023-03-01T02:40:54;-1.60;99.90
52127;DHT22;38120;53.176;6.614;2023-03-01T02:43:21;-1.70;99.90
52127;DHT22;38120;53.176;6.614;2023-03-01T02:45:51;-1.70;99.90
52127;DHT22;38120;53.176;6.614;2023-03-01T02:48:18;-2.80;99.90
52127;DHT22;38120;53.176;6.614;2023-03-01T02:53:39;-1.80;99.90
52127;DHT22;38120;53.176;6.614;2023-03-01T02:56:07;-1.80;99.90
52127;DHT22;38120;53.176;6.614;2023-03-01T02:58:41;-1.80;99.90
52127;DHT22;38120;53.176;6.614;2023-03-01T03:01:14;-1.80;99.90
52127;DHT22;38120;53.176;6.614;2023-03-01T03:03:41;-1.90;99.90
52127;DHT22;38120;53.176;6.614;2023-03-01T03:06:07;-1.90;99.90
52127;DHT22;38120;53.176;6.614;2023-03-01T03:08:33;-1.90;99.90
52127;DHT22;38120;53.176;6.614;2023-03-01T03:10:58;-1.90;99.90
52127;DHT22;38120;53.176;6.614;2023-03-01T03:13:24;-1.90;99.90
52127;DHT22;38120;53.176;6.614;2023-03-01T03:15:54;-1.80;99.90
52127;DHT22;38120;53.176;6.614;2023-03-01T03:18:19;-1.90;99.90
52127;DHT22;38120;53.176;6.614;2023-03-01T03:20:45;-2.00;99.90
52127;DHT22;38120;53.176;6.614;2023-03-01T03:23:11;-2.00;99.90
52127;DHT22;38120;53.176;6.614;2023-03-01T03:25:37;-1.90;99.90
52127;DHT22;38120;53.176;6.614;2023-03-01T03:28:03;-2.00;99.90
52127;DHT22;38120;53.176;6.614;2023-03-01T03:30:35;-2.10;99.90
52127;DHT22;38120;53.176;6.614;2023-03-01T03:33:01;-2.00;99.90
52127;DHT22;38120;53.176;6.614;2023-03-01T03:35:31;-1.90;99.90
52127;DHT22;38120;53.176;6.614;2023-03-01T03:38:01;-1.90;99.90
52127;DHT22;38120;53.176;6.614;2023-03-01T03:40:36;-2.00;99.90
52127;DHT22;38120;53.176;6.614;2023-03-01T03:43:36;-2.10;99.90
52127;DHT22;38120;53.176;6.614;2023-03-01T03:45:54;-2.00;99.90
52127;DHT22;38120;53.176;6.614;2023-03-01T03:48:22;-2.00;99.90
52127;DHT22;38120;53.176;6.614;2023-03-01T03:50:49;-2.00;99.90
52127;DHT22;38120;53.176;6.614;2023-03-01T03:53:15;-2.00;99.90
52127;DHT22;38120;53.176;6.614;2023-03-01T03:55:41;-2.00;99.90
52127;DHT22;38120;53.176;6.614;2023-03-01T03:58:08;-2.00;99.90
52127;DHT22;38120;53.176;6.614;2023-03-01T04:00:35;-2.00;99.90
52127;DHT22;38120;53.176;6.614;2023-03-01T04:03:01;-2.00;99.90
52127;DHT22;38120;53.176;6.614;2023-03-01T04:05:27;-2.10;99.90
52127;DHT22;38120;53.176;6.614;2023-03-01T04:07:53;-2.00;99.90
52127;DHT22;38120;53.176;6.614;2023-03-01T04:10:30;-2.10;99.90
52127;DHT22;38120;53.176;6.614;2023-03-01T04:12:56;-2.20;99.90
52127;DHT22;38120;53.176;6.614;2023-03-01T04:15:22;-2.10;99.90
52127;DHT22;38120;53.176;6.614;2023-03-01T04:17:50;-2.10;99.90
52127;DHT22;38120;53.176;6.614;2023-03-01T04:20:16;-2.20;99.90
52127;DHT22;38120;53.176;6.614;2023-03-01T04:22:42;-2.10;99.90
52127;DHT22;38120;53.176;6.614;2023-03-01T04:25:08;-2.10;99.90
52127;DHT22;38120;53.176;6.614;2023-03-01T04:27:35;-2.20;99.90
52127;DHT22;38120;53.176;6.614;2023-03-01T04:30:01;-2.20;99.90
52127;DHT22;38120;53.176;6.614;2023-03-01T04:32:27;-2.20;99.90
52127;DHT22;38120;53.176;6.614;2023-03-01T04:34:52;-2.20;99.90
52127;DHT22;38120;53.176;6.614;2023-03-01T04:37:18;-2.10;99.90
52127;DHT22;38120;53.176;6.614;2023-03-01T04:39:43;-2.20;99.90
52127;DHT22;38120;53.176;6.614;2023-03-01T04:42:13;-2.10;99.90
52127;DHT22;38120;53.176;6.614;2023-03-01T04:44:38;-2.10;99.90
52127;DHT22;38120;53.176;6.614;2023-03-01T04:47:04;-1.80;99.90
52127;DHT22;38120;53.176;6.614;2023-03-01T04:49:30;-2.10;99.90
52127;DHT22;38120;53.176;6.614;2023-03-01T04:51:56;-2.10;99.90
52127;DHT22;38120;53.176;6.614;2023-03-01T04:54:24;-2.10;99.90
52127;DHT22;38120;53.176;6.614;2023-03-01T04:56:50;-2.10;99.90
52127;DHT22;38120;53.176;6.614;2023-03-01T04:59:16;-2.10;99.90
52127;DHT22;38120;53.176;6.614;2023-03-01T05:01:41;-2.20;99.90
52127;DHT22;38120;53.176;6.614;2023-03-01T05:04:08;-2.10;99.90
52127;DHT22;38120;53.176;6.614;2023-03-01T05:06:38;-2.20;99.90
52127;DHT22;38120;53.176;6.614;2023-03-01T05:09:03;-2.20;99.90
52127;DHT22;38120;53.176;6.614;2023-03-01T05:11:29;-2.20;99.90
52127;DHT22;38120;53.176;6.614;2023-03-01T05:13:58;-2.20;99.90
52127;DHT22;38120;53.176;6.614;2023-03-01T05:16:24;-2.30;99.90
52127;DHT22;38120;53.176;6.614;2023-03-01T05:18:50;-2.30;99.90
52127;DHT22;38120;53.176;6.614;2023-03-01T05:21:16;-2.30;99.90
52127;DHT22;38120;53.176;6.614;2023-03-01T05:23:41;-2.30;99.90
52127;DHT22;38120;53.176;6.614;2023-03-01T05:26:07;-2.30;99.90
52127;DHT22;38120;53.176;6.614;2023-03-01T05:28:33;-2.30;99.90
52127;DHT22;38120;53.176;6.614;2023-03-01T05:30:59;-2.30;99.90
52127;DHT22;38120;53.176;6.614;2023-03-01T05:33:24;-2.30;99.90
52127;DHT22;38120;53.176;6.614;2023-03-01T05:35:51;-2.50;99.90
52127;DHT22;38120;53.176;6.614;2023-03-01T05:38:18;-2.40;99.90
52127;DHT22;38120;53.176;6.614;2023-03-01T05:40:44;-2.50;99.90
52127;DHT22;38120;53.176;6.614;2023-03-01T05:43:10;-2.50;99.90
52127;DHT22;38120;53.176;6.614;2023-03-01T05:45:37;-2.60;99.90
52127;DHT22;38120;53.176;6.614;2023-03-01T05:48:03;-2.60;99.90
52127;DHT22;38120;53.176;6.614;2023-03-01T05:50:29;-2.60;99.90
52127;DHT22;38120;53.176;6.614;2023-03-01T05:53:00;-2.70;99.90
52127;DHT22;38120;53.176;6.614;2023-03-01T05:55:25;-2.70;99.90
52127;DHT22;38120;53.176;6.614;2023-03-01T05:57:51;-2.60;99.90
52127;DHT22;38120;53.176;6.614;2023-03-01T06:00:18;-2.60;99.90
52127;DHT22;38120;53.176;6.614;2023-03-01T06:02:44;-2.60;99.90
52127;DHT22;38120;53.176;6.614;2023-03-01T06:05:10;-2.70;99.90
52127;DHT22;38120;53.176;6.614;2023-03-01T06:07:36;-2.70;99.90
52127;DHT22;38120;53.176;6.614;2023-03-01T06:10:02;-2.80;99.90
52127;DHT22;38120;53.176;6.614;2023-03-01T06:12:35;-2.80;99.90
52127;DHT22;38120;53.176;6.614;2023-03-01T06:15:00;-2.90;99.90
52127;DHT22;38120;53.176;6.614;2023-03-01T06:17:28;-2.80;99.90
52127;DHT22;38120;53.176;6.614;2023-03-01T06:19:54;-2.80;99.90
52127;DHT22;38120;53.176;6.614;2023-03-01T06:22:20;-2.90;99.90
52127;DHT22;38120;53.176;6.614;2023-03-01T06:24:45;-2.90;99.90
52127;DHT22;38120;53.176;6.614;2023-03-01T06:27:11;-2.90;99.90
52127;DHT22;38120;53.176;6.614;2023-03-01T06:29:37;-2.90;99.90
52127;DHT22;38120;53.176;6.614;2023-03-01T06:32:02;-2.90;99.90
52127;DHT22;38120;53.176;6.614;2023-03-01T06:34:28;-2.70;99.90
52127;DHT22;38120;53.176;6.614;2023-03-01T06:36:54;-2.80;99.90
52127;DHT22;38120;53.176;6.614;2023-03-01T06:39:20;-2.90;99.90
52127;DHT22;38120;53.176;6.614;2023-03-01T06:41:45;-2.90;99.90
52127;DHT22;38120;53.176;6.614;2023-03-01T06:44:11;-2.90;99.90
52127;DHT22;38120;53.176;6.614;2023-03-01T06:46:36;-2.90;99.90
52127;DHT22;38120;53.176;6.614;2023-03-01T06:49:02;-2.90;99.90
52127;DHT22;38120;53.176;6.614;2023-03-01T06:51:32;-2.90;99.90
52127;DHT22;38120;53.176;6.614;2023-03-01T06:53:58;-2.90;99.90
52127;DHT22;38120;53.176;6.614;2023-03-01T06:56:24;-2.80;99.90
52127;DHT22;38120;53.176;6.614;2023-03-01T06:58:49;-2.90;99.90
52127;DHT22;38120;53.176;6.614;2023-03-01T07:01:15;-2.50;99.90
52127;DHT22;38120;53.176;6.614;2023-03-01T07:03:41;-2.80;99.90
52127;DHT22;38120;53.176;6.614;2023-03-01T07:06:09;-2.70;99.90
52127;DHT22;38120;53.176;6.614;2023-03-01T07:08:35;-2.70;99.90
52127;DHT22;38120;53.176;6.614;2023-03-01T07:11:01;-2.80;99.90
52127;DHT22;38120;53.176;6.614;2023-03-01T07:13:27;-2.80;99.90
52127;DHT22;38120;53.176;6.614;2023-03-01T07:15:53;-2.60;99.90
52127;DHT22;38120;53.176;6.614;2023-03-01T07:18:18;-2.60;99.90
52127;DHT22;38120;53.176;6.614;2023-03-01T07:20:44;-2.50;99.90
52127;DHT22;38120;53.176;6.614;2023-03-01T07:23:09;-2.40;99.90
52127;DHT22;38120;53.176;6.614;2023-03-01T07:25:35;-2.20;99.90
52127;DHT22;38120;53.176;6.614;2023-03-01T07:28:01;-2.30;99.90
52127;DHT22;38120;53.176;6.614;2023-03-01T07:30:26;-2.30;99.90
52127;DHT22;38120;53.176;6.614;2023-03-01T07:32:56;-2.10;99.90
52127;DHT22;38120;53.176;6.614;2023-03-01T07:35:23;-2.20;99.90
52127;DHT22;38120;53.176;6.614;2023-03-01T07:37:48;-2.10;99.90
52127;DHT22;38120;53.176;6.614;2023-03-01T07:40:14;-2.00;99.90
52127;DHT22;38120;53.176;6.614;2023-03-01T07:42:39;-1.90;99.90
52127;DHT22;38120;53.176;6.614;2023-03-01T07:45:05;-1.70;99.90
52127;DHT22;38120;53.176;6.614;2023-03-01T07:47:31;-1.70;99.90
52127;DHT22;38120;53.176;6.614;2023-03-01T07:49:57;-1.60;99.90
52127;DHT22;38120;53.176;6.614;2023-03-01T07:52:23;-1.60;99.90
52127;DHT22;38120;53.176;6.614;2023-03-01T07:54:49;-1.40;99.90
52127;DHT22;38120;53.176;6.614;2023-03-01T07:57:14;-1.30;99.90
52127;DHT22;38120;53.176;6.614;2023-03-01T07:59:40;-1.20;99.90
52127;DHT22;38120;53.176;6.614;2023-03-01T08:02:06;-1.10;99.90
52127;DHT22;38120;53.176;6.614;2023-03-01T08:04:32;-0.90;99.90
52127;DHT22;38120;53.176;6.614;2023-03-01T08:06:58;-0.90;99.90
52127;DHT22;38120;53.176;6.614;2023-03-01T08:09:24;-0.80;99.90
52127;DHT22;38120;53.176;6.614;2023-03-01T08:11:49;-0.70;99.90
52127;DHT22;38120;53.176;6.614;2023-03-01T08:14:15;-0.70;99.90
52127;DHT22;38120;53.176;6.614;2023-03-01T08:16:41;-0.50;99.90
52127;DHT22;38120;53.176;6.614;2023-03-01T08:19:07;-0.60;99.90
52127;DHT22;38120;53.176;6.614;2023-03-01T08:21:33;-0.60;99.90
52127;DHT22;38120;53.176;6.614;2023-03-01T08:24:02;-0.40;99.90
52127;DHT22;38120;53.176;6.614;2023-03-01T08:26:28;-0.40;99.90
52127;DHT22;38120;53.176;6.614;2023-03-01T08:28:54;-0.10;99.90
52127;DHT22;38120;53.176;6.614;2023-03-01T08:31:40;-0.20;99.90
52127;DHT22;38120;53.176;6.614;2023-03-01T08:34:06;-0.20;99.90
52127;DHT22;38120;53.176;6.614;2023-03-01T08:36:33;-0.10;99.90
52127;DHT22;38120;53.176;6.614;2023-03-01T08:39:00;0.60;99.90
52127;DHT22;38120;53.176;6.614;2023-03-01T08:41:26;0.10;99.90
52127;DHT22;38120;53.176;6.614;2023-03-01T08:43:51;1.20;99.90
52127;DHT22;38120;53.176;6.614;2023-03-01T08:46:18;0.20;99.90
52127;DHT22;38120;53.176;6.614;2023-03-01T08:48:43;0.40;99.90
52127;DHT22;38120;53.176;6.614;2023-03-01T08:51:13;0.50;99.90
52127;DHT22;38120;53.176;6.614;2023-03-01T08:53:39;0.60;99.90
52127;DHT22;38120;53.176;6.614;2023-03-01T08:56:04;0.70;99.90
52127;DHT22;38120;53.176;6.614;2023-03-01T08:58:30;0.80;99.90
52127;DHT22;38120;53.176;6.614;2023-03-01T09:00:56;0.90;99.90
52127;DHT22;38120;53.176;6.614;2023-03-01T09:03:22;1.20;99.90
52127;DHT22;38120;53.176;6.614;2023-03-01T09:05:48;1.10;99.90
52127;DHT22;38120;53.176;6.614;2023-03-01T09:08:18;1.20;99.90
52127;DHT22;38120;53.176;6.614;2023-03-01T09:10:44;1.50;99.90
52127;DHT22;38120;53.176;6.614;2023-03-01T09:13:10;1.60;99.90
52127;DHT22;38120;53.176;6.614;2023-03-01T09:15:38;1.60;99.90
52127;DHT22;38120;53.176;6.614;2023-03-01T09:18:04;1.70;99.90
52127;DHT22;38120;53.176;6.614;2023-03-01T09:20:30;1.80;99.90
52127;DHT22;38120;53.176;6.614;2023-03-01T09:22:57;1.90;99.90
52127;DHT22;38120;53.176;6.614;2023-03-01T09:25:22;1.90;99.90
52127;DHT22;38120;53.176;6.614;2023-03-01T09:27:50;3.10;99.90
52127;DHT22;38120;53.176;6.614;2023-03-01T09:30:18;2.20;99.90
52127;DHT22;38120;53.176;6.614;2023-03-01T09:32:44;2.20;99.90
52127;DHT22;38120;53.176;6.614;2023-03-01T09:35:10;2.30;99.90
52127;DHT22;38120;53.176;6.614;2023-03-01T09:37:37;2.30;99.90
52127;DHT22;38120;53.176;6.614;2023-03-01T09:40:06;2.60;99.90
52127;DHT22;38120;53.176;6.614;2023-03-01T09:42:34;2.50;99.90
52127;DHT22;38120;53.176;6.614;2023-03-01T09:45:25;2.60;99.90
52127;DHT22;38120;53.176;6.614;2023-03-01T09:54:00;2.70;99.90
52127;DHT22;38120;53.176;6.614;2023-03-01T09:56:34;2.90;99.90
52127;DHT22;38120;53.176;6.614;2023-03-01T09:59:11;3.00;99.90
52127;DHT22;38120;53.176;6.614;2023-03-01T10:04:39;3.20;99.90
52127;DHT22;38120;53.176;6.614;2023-03-01T10:09:36;3.30;99.90
52127;DHT22;38120;53.176;6.614;2023-03-01T10:12:02;3.60;99.90
52127;DHT22;38120;53.176;6.614;2023-03-01T10:14:35;3.50;99.90
52127;DHT22;38120;53.176;6.614;2023-03-01T10:17:03;3.60;99.90
52127;DHT22;38120;53.176;6.614;2023-03-01T10:19:38;3.70;99.90
52127;DHT22;38120;53.176;6.614;2023-03-01T10:24:46;3.80;99.90
52127;DHT22;38120;53.176;6.614;2023-03-01T10:32:25;4.20;99.90
52127;DHT22;38120;53.176;6.614;2023-03-01T10:34:51;4.20;99.90
52127;DHT22;38120;53.176;6.614;2023-03-01T10:37:18;4.30;99.90
52127;DHT22;38120;53.176;6.614;2023-03-01T10:39:55;4.30;99.90
52127;DHT22;38120;53.176;6.614;2023-03-01T10:42:29;4.30;99.90
52127;DHT22;38120;53.176;6.614;2023-03-01T10:44:55;4.30;99.90
52127;DHT22;38120;53.176;6.614;2023-03-01T10:47:27;4.50;99.90
52127;DHT22;38120;53.176;6.614;2023-03-01T10:49:57;4.50;99.90
52127;DHT22;38120;53.176;6.614;2023-03-01T10:52:25;4.60;99.90
52127;DHT22;38120;53.176;6.614;2023-03-01T10:54:53;4.70;99.90
52127;DHT22;38120;53.176;6.614;2023-03-01T11:00:14;4.80;99.90
52127;DHT22;38120;53.176;6.614;2023-03-01T11:05:32;4.90;99.90
52127;DHT22;38120;53.176;6.614;2023-03-01T11:07:59;4.90;99.90
52127;DHT22;38120;53.176;6.614;2023-03-01T11:12:54;5.00;99.90
52127;DHT22;38120;53.176;6.614;2023-03-01T11:15:30;5.10;99.90
52127;DHT22;38120;53.176;6.614;2023-03-01T11:17:56;5.60;99.90
52127;DHT22;38120;53.176;6.614;2023-03-01T11:22:56;5.30;99.90
52127;DHT22;38120;53.176;6.614;2023-03-01T11:25:24;5.30;99.90
52127;DHT22;38120;53.176;6.614;2023-03-01T11:27:51;5.30;99.90
52127;DHT22;38120;53.176;6.614;2023-03-01T11:30:38;5.40;99.90
52127;DHT22;38120;53.176;6.614;2023-03-01T11:35:37;5.50;99.90
52127;DHT22;38120;53.176;6.614;2023-03-01T11:40:50;5.60;99.90
52127;DHT22;38120;53.176;6.614;2023-03-01T11:43:33;5.70;99.90
52127;DHT22;38120;53.176;6.614;2023-03-01T11:46:05;5.70;99.90
52127;DHT22;38120;53.176;6.614;2023-03-01T11:48:36;5.80;99.90
52127;DHT22;38120;53.176;6.614;2023-03-01T11:51:05;5.90;99.90
52127;DHT22;38120;53.176;6.614;2023-03-01T12:06:24;6.00;99.90
52127;DHT22;38120;53.176;6.614;2023-03-01T12:11:43;6.10;99.90
52127;DHT22;38120;53.176;6.614;2023-03-01T12:14:25;6.20;99.90
52127;DHT22;38120;53.176;6.614;2023-03-01T12:17:02;6.30;99.90
52127;DHT22;38120;53.176;6.614;2023-03-01T12:19:52;6.30;99.90
52127;DHT22;38120;53.176;6.614;2023-03-01T12:22:30;6.30;99.90
52127;DHT22;38120;53.176;6.614;2023-03-01T12:27:32;6.60;99.90
52127;DHT22;38120;53.176;6.614;2023-03-01T12:32:52;6.70;99.90
52127;DHT22;38120;53.176;6.614;2023-03-01T12:38:49;6.70;99.90
52127;DHT22;38120;53.176;6.614;2023-03-01T12:40:53;6.70;99.90
52127;DHT22;38120;53.176;6.614;2023-03-01T12:43:34;6.90;99.90
52127;DHT22;38120;53.176;6.614;2023-03-01T12:48:33;6.80;99.90
52127;DHT22;38120;53.176;6.614;2023-03-01T12:51:01;7.00;99.90
52127;DHT22;38120;53.176;6.614;2023-03-01T12:55:58;7.00;99.90
52127;DHT22;38120;53.176;6.614;2023-03-01T12:58:30;7.10;99.90
52127;DHT22;38120;53.176;6.614;2023-03-01T13:01:04;7.30;1.00
52127;DHT22;38120;53.176;6.614;2023-03-01T13:08:48;7.30;99.90
52127;DHT22;38120;53.176;6.614;2023-03-01T13:11:16;7.20;37.60
52127;DHT22;38120;53.176;6.614;2023-03-01T13:13:42;7.10;1.00
52127;DHT22;38120;53.176;6.614;2023-03-01T13:16:54;7.30;1.00
52127;DHT22;38120;53.176;6.614;2023-03-01T13:19:08;7.10;1.00
52127;DHT22;38120;53.176;6.614;2023-03-01T13:21:35;7.30;1.00
52127;DHT22;38120;53.176;6.614;2023-03-01T13:24:00;7.40;1.00
52127;DHT22;38120;53.176;6.614;2023-03-01T13:26:26;7.30;99.90
52127;DHT22;38120;53.176;6.614;2023-03-01T13:28:52;7.40;99.90
52127;DHT22;38120;53.176;6.614;2023-03-01T13:36:10;7.30;99.90
52127;DHT22;38120;53.176;6.614;2023-03-01T13:38:44;7.30;1.00
52127;DHT22;38120;53.176;6.614;2023-03-01T13:41:11;7.40;99.90
52127;DHT22;38120;53.176;6.614;2023-03-01T13:43:38;7.40;1.00
52127;DHT22;38120;53.176;6.614;2023-03-01T13:46:11;7.50;1.00
52127;DHT22;38120;53.176;6.614;2023-03-01T13:48:38;7.50;99.90
52127;DHT22;38120;53.176;6.614;2023-03-01T13:51:05;7.50;99.90
52127;DHT22;38120;53.176;6.614;2023-03-01T13:53:36;7.60;99.90
52127;DHT22;38120;53.176;6.614;2023-03-01T13:56:12;7.50;99.90
52127;DHT22;38120;53.176;6.614;2023-03-01T13:58:47;7.60;99.90
52127;DHT22;38120;53.176;6.614;2023-03-01T14:01:20;7.70;99.90
52127;DHT22;38120;53.176;6.614;2023-03-01T14:03:46;7.90;99.90
52127;DHT22;38120;53.176;6.614;2023-03-01T14:06:13;7.70;99.90
52127;DHT22;38120;53.176;6.614;2023-03-01T14:08:41;7.60;99.90
52127;DHT22;38120;53.176;6.614;2023-03-01T14:11:13;7.60;99.90
52127;DHT22;38120;53.176;6.614;2023-03-01T14:18:56;7.70;99.90
52127;DHT22;38120;53.176;6.614;2023-03-01T14:21:25;7.70;99.90
52127;DHT22;38120;53.176;6.614;2023-03-01T14:23:51;7.60;99.90
52127;DHT22;38120;53.176;6.614;2023-03-01T14:26:21;7.60;99.90
52127;DHT22;38120;53.176;6.614;2023-03-01T14:28:47;7.60;99.90
52127;DHT22;38120;53.176;6.614;2023-03-01T14:34:16;7.60;1.00
52127;DHT22;38120;53.176;6.614;2023-03-01T14:36:44;7.50;1.00
52127;DHT22;38120;53.176;6.614;2023-03-01T14:39:25;7.50;1.00
52127;DHT22;38120;53.176;6.614;2023-03-01T14:41:54;7.40;1.00
52127;DHT22;38120;53.176;6.614;2023-03-01T14:44:21;7.30;1.00
52127;DHT22;38120;53.176;6.614;2023-03-01T14:46:54;8.00;1.00
52127;DHT22;38120;53.176;6.614;2023-03-01T14:49:30;7.30;1.00
52127;DHT22;38120;53.176;6.614;2023-03-01T14:52:00;7.30;13.00
52127;DHT22;38120;53.176;6.614;2023-03-01T14:54:28;7.20;71.40
52127;DHT22;38120;53.176;6.614;2023-03-01T14:56:58;7.30;99.90
52127;DHT22;38120;53.176;6.614;2023-03-01T14:59:25;7.20;90.10
52127;DHT22;38120;53.176;6.614;2023-03-01T15:01:51;7.20;99.90
52127;DHT22;38120;53.176;6.614;2023-03-01T15:04:18;7.10;99.90
52127;DHT22;38120;53.176;6.614;2023-03-01T15:06:44;7.30;99.90
52127;DHT22;38120;53.176;6.614;2023-03-01T15:09:12;7.10;99.90
52127;DHT22;38120;53.176;6.614;2023-03-01T15:11:39;7.10;99.90
52127;DHT22;38120;53.176;6.614;2023-03-01T15:14:28;7.00;99.90
52127;DHT22;38120;53.176;6.614;2023-03-01T15:16:54;7.10;99.90
52127;DHT22;38120;53.176;6.614;2023-03-01T15:19:20;7.00;99.90
52127;DHT22;38120;53.176;6.614;2023-03-01T15:21:48;7.00;99.90
52127;DHT22;38120;53.176;6.614;2023-03-01T15:24:20;7.00;99.90
52127;DHT22;38120;53.176;6.614;2023-03-01T15:26:52;7.00;99.90
52127;DHT22;38120;53.176;6.614;2023-03-01T15:29:26;7.00;99.90
52127;DHT22;38120;53.176;6.614;2023-03-01T15:32:26;7.00;1.00
52127;DHT22;38120;53.176;6.614;2023-03-01T15:34:52;7.00;99.90
52127;DHT22;38120;53.176;6.614;2023-03-01T15:40:02;6.90;1.00
52127;DHT22;38120;53.176;6.614;2023-03-01T15:47:57;6.90;1.00
52127;DHT22;38120;53.176;6.614;2023-03-01T15:52:48;7.10;1.00
52127;DHT22;38120;53.176;6.614;2023-03-01T15:55:19;6.80;1.00
52127;DHT22;38120;53.176;6.614;2023-03-01T15:57:45;6.80;1.00
52127;DHT22;38120;53.176;6.614;2023-03-01T16:00:11;6.70;1.00
52127;DHT22;38120;53.176;6.614;2023-03-01T16:02:39;6.70;30.30
52127;DHT22;38120;53.176;6.614;2023-03-01T16:05:05;6.60;60.60
52127;DHT22;38120;53.176;6.614;2023-03-01T16:07:30;6.60;99.90
52127;DHT22;38120;53.176;6.614;2023-03-01T16:09:56;6.50;99.90
52127;DHT22;38120;53.176;6.614;2023-03-01T16:12:22;6.50;99.90
52127;DHT22;38120;53.176;6.614;2023-03-01T16:14:49;6.50;99.90
52127;DHT22;38120;53.176;6.614;2023-03-01T16:17:17;6.50;99.90
52127;DHT22;38120;53.176;6.614;2023-03-01T16:19:47;6.40;99.90
52127;DHT22;38120;53.176;6.614;2023-03-01T16:22:13;6.40;99.90
52127;DHT22;38120;53.176;6.614;2023-03-01T16:24:38;6.40;99.90
52127;DHT22;38120;53.176;6.614;2023-03-01T16:27:05;6.30;99.90
52127;DHT22;38120;53.176;6.614;2023-03-01T16:29:31;6.30;99.90
52127;DHT22;38120;53.176;6.614;2023-03-01T16:31:59;6.20;99.90
52127;DHT22;38120;53.176;6.614;2023-03-01T16:34:25;6.50;99.90
52127;DHT22;38120;53.176;6.614;2023-03-01T16:36:50;6.20;99.90
52127;DHT22;38120;53.176;6.614;2023-03-01T16:39:16;6.10;99.90
52127;DHT22;38120;53.176;6.614;2023-03-01T16:41:41;6.10;99.90
52127;DHT22;38120;53.176;6.614;2023-03-01T16:44:07;6.00;99.90
52127;DHT22;38120;53.176;6.614;2023-03-01T16:46:33;5.90;99.90
52127;DHT22;38120;53.176;6.614;2023-03-01T16:48:58;6.00;99.90
52127;DHT22;38120;53.176;6.614;2023-03-01T16:51:24;5.90;99.90
52127;DHT22;38120;53.176;6.614;2023-03-01T16:53:50;5.90;99.90
52127;DHT22;38120;53.176;6.614;2023-03-01T16:56:15;5.70;99.90
52127;DHT22;38120;53.176;6.614;2023-03-01T16:58:42;5.60;99.90
52127;DHT22;38120;53.176;6.614;2023-03-01T17:01:12;5.50;99.90
52127;DHT22;38120;53.176;6.614;2023-03-01T17:03:38;5.50;99.90
52127;DHT22;38120;53.176;6.614;2023-03-01T17:06:13;5.40;99.90
52127;DHT22;38120;53.176;6.614;2023-03-01T17:08:39;5.30;99.90
52127;DHT22;38120;53.176;6.614;2023-03-01T17:11:11;5.20;99.90
52127;DHT22;38120;53.176;6.614;2023-03-01T17:13:37;6.30;99.90
52127;DHT22;38120;53.176;6.614;2023-03-01T17:16:04;5.00;99.90
52127;DHT22;38120;53.176;6.614;2023-03-01T17:18:30;4.90;99.90
52127;DHT22;38120;53.176;6.614;2023-03-01T17:20:55;4.80;99.90
52127;DHT22;38120;53.176;6.614;2023-03-01T17:23:21;4.70;99.90
52127;DHT22;38120;53.176;6.614;2023-03-01T17:25:46;5.00;99.90
52127;DHT22;38120;53.176;6.614;2023-03-01T17:28:12;4.70;99.90
52127;DHT22;38120;53.176;6.614;2023-03-01T17:30:45;4.70;99.90